createdAt,value
2022-10-03T00:02:05.782Z,1.58
2022-10-03T00:04:58.677Z,1.70
2022-10-03T00:07:44.556Z,1.80
2022-10-03T00:10:30.373Z,1.42
2022-10-03T00:12:57.869Z,1.77
2022-10-03T00:15:35.204Z,1.48
2022-10-03T00:18:11.044Z,1.50
2022-10-03T00:21:17.616Z,1.30
2022-10-03T00:24:04.987Z,1.40
2022-10-03T00:26:38.976Z,1.50
2022-10-03T00:29:28.526Z,1.42
2022-10-03T00:32:22.498Z,1.70
2022-10-03T00:34:50.757Z,1.08
2022-10-03T00:37:30.936Z,1.38
2022-10-03T00:40:32.566Z,1.63
2022-10-03T00:43:21.447Z,1.50
2022-10-03T00:46:23.167Z,1.40
2022-10-03T00:49:15.599Z,1.58
2022-10-03T00:52:02.493Z,1.40
2022-10-03T00:54:33.095Z,1.42
2022-10-03T00:57:03.932Z,1.40
2022-10-03T01:00:01.195Z,1.75
2022-10-03T01:02:47.227Z,1.50
2022-10-03T01:05:22.349Z,1.33
2022-10-03T01:08:04.070Z,1.42
2022-10-03T01:11:26.047Z,1.15
2022-10-03T01:14:11.759Z,1.40
2022-10-03T01:17:14.928Z,1.33
2022-10-03T01:20:01.105Z,1.70
2022-10-03T01:22:41.173Z,1.40
2022-10-03T01:25:23.961Z,1.48
2022-10-03T01:28:19.146Z,1.30
2022-10-03T01:30:49.971Z,1.40
2022-10-03T01:33:37.700Z,1.50
2022-10-03T01:36:10.901Z,1.70
2022-10-03T01:39:03.042Z,1.83
2022-10-03T01:41:38.193Z,1.30
2022-10-03T01:44:09.121Z,1.60
2022-10-03T01:46:50.920Z,1.40
2022-10-03T01:49:27.511Z,1.75
2022-10-03T01:52:12.338Z,1.70
2022-10-03T01:57:22.115Z,2.03
2022-10-03T01:59:55.740Z,1.50
2022-10-03T02:02:39.842Z,1.73
2022-10-03T02:05:10.367Z,1.70
2022-10-03T02:07:51.233Z,1.90
2022-10-03T02:10:45.218Z,2.00
2022-10-03T02:13:24.487Z,2.13
2022-10-03T02:16:05.755Z,1.88
2022-10-03T02:18:56.101Z,2.17
2022-10-03T02:21:28.548Z,1.95
2022-10-03T02:24:28.493Z,2.08
2022-10-03T02:27:12.964Z,2.60
2022-10-03T02:30:05.751Z,2.38
2022-10-03T02:33:10.960Z,2.40
2022-10-03T02:35:41.743Z,2.58
2022-10-03T02:38:18.251Z,2.60
2022-10-03T02:41:14.094Z,2.65
2022-10-03T02:44:09.494Z,3.08
2022-10-03T02:46:46.978Z,2.92
2022-10-03T02:49:53.703Z,3.08
2022-10-03T02:52:37.972Z,2.88
2022-10-03T02:55:28.766Z,2.60
2022-10-03T02:58:34.419Z,2.65
2022-10-03T03:01:10.881Z,2.55
2022-10-03T03:03:58.577Z,2.78
2022-10-03T03:06:55.286Z,2.60
2022-10-03T03:10:00.749Z,3.03
2022-10-03T03:12:52.703Z,2.53
2022-10-03T03:15:57.236Z,2.42
2022-10-03T03:18:38.206Z,1.90
2022-10-03T03:21:08.821Z,2.78
2022-10-03T03:23:42.455Z,2.50
2022-10-03T03:26:37.844Z,2.15
2022-10-03T03:31:54.695Z,2.33
2022-10-03T03:34:35.574Z,2.40
2022-10-03T03:37:16.872Z,2.35
2022-10-03T03:39:57.796Z,2.00
2022-10-03T03:42:37.418Z,2.08
2022-10-03T03:45:29.595Z,2.17
2022-10-03T03:48:39.848Z,2.85
2022-10-03T03:51:29.466Z,2.47
2022-10-03T03:54:05.925Z,2.60
2022-10-03T03:56:55.927Z,2.38
2022-10-03T03:59:26.591Z,2.20
2022-10-03T04:01:59.710Z,1.75
2022-10-03T04:04:29.353Z,2.50
2022-10-03T04:07:21.504Z,2.30
2022-10-03T04:10:01.149Z,2.40
2022-10-03T04:12:48.740Z,2.30
2022-10-03T04:15:34.693Z,2.92
2022-10-03T04:18:35.948Z,2.35
2022-10-03T04:21:21.911Z,2.60
2022-10-03T04:24:22.071Z,2.72
2022-10-03T04:27:23.458Z,2.47
2022-10-03T04:30:10.048Z,2.55
2022-10-03T04:32:57.383Z,2.67
2022-10-03T04:36:12.478Z,2.70
2022-10-03T04:38:44.472Z,2.80
2022-10-03T04:41:33.045Z,3.00
2022-10-03T04:44:12.103Z,3.00
2022-10-03T04:46:46.931Z,2.80
2022-10-03T04:49:32.220Z,2.55
2022-10-03T04:52:33.374Z,2.40
2022-10-03T04:55:06.870Z,2.63
2022-10-03T04:57:45.519Z,2.63
2022-10-03T05:00:31.453Z,2.90
2022-10-03T05:03:11.923Z,2.50
2022-10-03T05:05:55.350Z,3.10
2022-10-03T05:08:41.230Z,2.72
2022-10-03T05:11:23.231Z,2.40
2022-10-03T05:14:01.506Z,2.70
2022-10-03T05:16:41.267Z,3.00
2022-10-03T05:19:20.992Z,2.83
2022-10-03T05:22:00.635Z,2.85
2022-10-03T05:24:35.027Z,2.70
2022-10-03T05:27:14.670Z,2.92
2022-10-03T05:29:48.543Z,3.20
2022-10-03T05:32:38.880Z,2.33
2022-10-03T05:35:35.234Z,2.80
2022-10-03T05:38:35.146Z,2.63
2022-10-03T05:41:05.210Z,2.50
2022-10-03T05:44:01.180Z,2.85
2022-10-03T05:47:01.148Z,2.60
2022-10-03T05:49:46.259Z,2.80
2022-10-03T05:55:19.231Z,3.10
2022-10-03T05:57:46.852Z,2.80
2022-10-03T06:00:42.088Z,3.28
2022-10-03T06:03:45.992Z,3.20
2022-10-03T06:06:28.013Z,3.20
2022-10-03T06:09:00.939Z,3.75
2022-10-03T06:11:57.257Z,3.72
2022-10-03T06:14:43.533Z,5.10
2022-10-03T06:18:00.542Z,4.55
2022-10-03T06:20:50.492Z,3.60
2022-10-03T06:23:48.066Z,3.92
2022-10-03T06:26:36.269Z,3.55
2022-10-03T06:29:21.914Z,3.53
2022-10-03T06:31:52.348Z,3.05
2022-10-03T06:34:57.414Z,3.55
2022-10-03T06:37:46.840Z,3.15
2022-10-03T06:40:26.710Z,2.55
2022-10-03T06:43:16.402Z,2.70
2022-10-03T06:46:08.536Z,3.28
2022-10-03T06:49:13.611Z,3.08
2022-10-03T06:51:51.723Z,2.95
2022-10-03T06:54:38.099Z,3.20
2022-10-03T06:57:12.219Z,2.85
2022-10-03T07:00:04.624Z,2.75
2022-10-03T07:02:50.037Z,2.80
2022-10-03T07:05:42.496Z,3.00
2022-10-03T07:08:48.002Z,2.80
2022-10-03T07:11:51.076Z,3.30
2022-10-03T07:15:06.677Z,3.00
2022-10-03T07:17:50.764Z,3.40
2022-10-03T07:20:58.880Z,6.68
2022-10-03T07:23:44.459Z,5.57
2022-10-03T07:26:11.895Z,4.28
2022-10-03T07:29:14.559Z,4.45
2022-10-03T07:32:10.138Z,5.38
2022-10-03T07:35:11.869Z,5.25
2022-10-03T07:38:14.512Z,5.30
2022-10-03T07:41:21.709Z,4.32
2022-10-03T07:44:04.909Z,4.13
2022-10-03T07:46:35.405Z,3.92
2022-10-03T07:49:20.463Z,3.53
2022-10-03T07:52:06.011Z,3.40
2022-10-03T07:54:42.615Z,3.88
2022-10-03T07:57:28.262Z,3.25
2022-10-03T07:59:58.700Z,3.25
2022-10-03T08:02:29.411Z,3.10
2022-10-03T08:05:11.615Z,3.20
2022-10-03T08:07:46.875Z,2.65
2022-10-03T08:10:40.725Z,2.95
2022-10-03T08:13:49.232Z,2.90
2022-10-03T08:16:42.696Z,2.83
2022-10-03T08:19:19.215Z,2.50
2022-10-03T08:22:05.051Z,3.15
2022-10-03T08:24:38.182Z,2.78
2022-10-03T08:27:12.235Z,3.13
2022-10-03T08:29:42.570Z,2.70
2022-10-03T08:32:34.891Z,3.08
2022-10-03T08:35:20.748Z,3.20
2022-10-03T08:38:07.183Z,2.63
2022-10-03T08:41:12.648Z,2.35
2022-10-03T08:44:11.241Z,2.50
2022-10-03T08:47:01.612Z,2.80
2022-10-03T08:49:35.835Z,2.50
2022-10-03T08:52:39.752Z,3.05
2022-10-03T08:55:26.447Z,3.03
2022-10-03T08:58:00.027Z,3.72
2022-10-03T09:00:33.261Z,3.88
2022-10-03T09:06:12.332Z,4.07
2022-10-03T09:08:49.329Z,3.50
2022-10-03T09:11:36.193Z,3.35
2022-10-03T09:14:32.565Z,3.70
2022-10-03T09:17:06.533Z,3.25
2022-10-03T09:19:52.396Z,4.05
2022-10-03T09:22:34.848Z,4.30
2022-10-03T09:25:09.037Z,3.70
2022-10-03T09:28:08.923Z,3.53
2022-10-03T09:30:48.814Z,3.38
2022-10-03T09:33:43.723Z,3.55
2022-10-03T09:36:29.928Z,3.78
2022-10-03T09:38:57.373Z,3.05
2022-10-03T09:41:52.463Z,3.35
2022-10-03T09:44:44.415Z,3.03
2022-10-03T09:47:34.014Z,3.15
2022-10-03T09:50:27.381Z,3.17
2022-10-03T09:53:06.973Z,2.65
2022-10-03T09:56:02.829Z,2.83
2022-10-03T09:58:52.476Z,2.67
2022-10-03T10:01:43.550Z,2.55
2022-10-03T10:04:50.299Z,2.63
2022-10-03T10:08:03.332Z,2.88
2022-10-03T10:10:51.181Z,2.63
2022-10-03T10:14:07.240Z,4.88
2022-10-03T10:16:52.179Z,3.83
2022-10-03T10:19:32.261Z,2.78
2022-10-03T10:22:42.212Z,2.75
2022-10-03T10:25:43.509Z,2.42
2022-10-03T10:28:48.659Z,2.50
2022-10-03T10:31:34.838Z,2.22
2022-10-03T10:34:32.374Z,2.17
2022-10-03T10:37:06.006Z,2.22
2022-10-03T10:39:40.085Z,2.20
2022-10-03T10:42:37.892Z,2.20
2022-10-03T10:45:24.539Z,2.50
2022-10-03T10:48:18.841Z,2.42
2022-10-03T10:51:14.005Z,2.37
2022-10-03T10:54:12.511Z,2.63
2022-10-03T10:57:08.037Z,2.28
2022-10-03T10:59:53.746Z,1.88
2022-10-03T11:02:46.064Z,2.47
2022-10-03T11:05:32.822Z,2.08
2022-10-03T11:08:41.174Z,2.20
2022-10-03T11:11:41.952Z,1.80
2022-10-03T11:14:47.514Z,2.35
2022-10-03T11:17:38.300Z,2.13
2022-10-03T11:20:24.227Z,2.05
2022-10-03T11:23:16.351Z,1.85
2022-10-03T11:26:06.012Z,1.70
2022-10-03T11:28:58.545Z,2.25
2022-10-03T11:32:09.729Z,2.30
2022-10-03T11:35:02.108Z,2.10
2022-10-03T11:37:45.022Z,2.38
2022-10-03T11:40:37.604Z,1.80
2022-10-03T11:43:38.797Z,2.35
2022-10-03T11:46:45.018Z,2.42
2022-10-03T11:49:41.127Z,1.75
2022-10-03T11:52:28.025Z,1.90
2022-10-03T11:55:06.115Z,1.90
2022-10-03T11:57:40.258Z,1.73
2022-10-03T12:00:10.545Z,1.85
2022-10-03T12:02:44.644Z,2.63
2022-10-03T12:05:15.698Z,2.05
2022-10-03T12:08:19.051Z,2.00
2022-10-03T12:11:03.562Z,1.48
2022-10-03T12:13:42.497Z,1.60
2022-10-03T12:16:27.776Z,1.60
2022-10-03T12:21:28.399Z,1.33
2022-10-03T12:24:15.203Z,1.60
2022-10-03T12:27:26.521Z,1.45
2022-10-03T12:29:58.971Z,1.90
2022-10-03T12:32:49.741Z,1.80
2022-10-03T12:35:17.889Z,1.35
2022-10-03T12:37:57.272Z,0.98
2022-10-03T12:40:28.426Z,1.30
2022-10-03T12:43:28.325Z,1.30
2022-10-03T12:46:00.484Z,1.45
2022-10-03T12:48:52.473Z,2.15
2022-10-03T12:51:24.679Z,1.60
2022-10-03T12:54:08.523Z,1.63
2022-10-03T12:56:43.213Z,1.45
2022-10-03T12:59:35.901Z,1.30
2022-10-03T13:02:12.543Z,1.30
2022-10-03T13:04:52.721Z,1.55
2022-10-03T13:07:28.473Z,1.20
2022-10-03T13:10:09.784Z,1.23
2022-10-03T13:12:46.185Z,1.27
2022-10-03T13:15:19.792Z,2.08
2022-10-03T13:18:33.887Z,1.58
2022-10-03T13:21:33.502Z,2.00
2022-10-03T13:24:02.983Z,1.27
2022-10-03T13:26:42.612Z,1.58
2022-10-03T13:29:23.727Z,1.55
2022-10-03T13:32:17.504Z,1.55
2022-10-03T13:35:48.690Z,1.42
2022-10-03T13:38:58.260Z,1.35
2022-10-03T13:41:40.031Z,1.50
2022-10-03T13:44:35.590Z,1.58
2022-10-03T13:49:53.977Z,2.00
2022-10-03T13:52:38.780Z,2.25
2022-10-03T13:55:06.211Z,1.90
2022-10-03T13:57:39.887Z,1.75
2022-10-03T14:00:16.917Z,1.52
2022-10-03T14:03:09.192Z,1.30
2022-10-03T14:06:16.084Z,4.07
2022-10-03T14:09:01.839Z,6.13
2022-10-03T14:11:44.428Z,3.17
2022-10-03T14:14:21.594Z,2.00
2022-10-03T14:17:00.835Z,2.00
2022-10-03T14:19:52.171Z,1.60
2022-10-03T14:22:59.967Z,1.92
2022-10-03T14:25:47.107Z,2.00
2022-10-03T14:28:26.867Z,2.30
2022-10-03T14:31:17.699Z,1.58
2022-10-03T14:34:03.356Z,1.92
2022-10-03T14:36:52.401Z,2.10
2022-10-03T14:39:40.928Z,2.35
2022-10-03T14:42:47.468Z,1.90
2022-10-03T14:45:17.946Z,1.55
2022-10-03T14:47:51.643Z,1.48
2022-10-03T14:50:26.572Z,1.60
2022-10-03T14:53:02.437Z,1.40
2022-10-03T14:55:38.462Z,1.55
2022-10-03T14:58:13.107Z,1.90
2022-10-03T15:03:24.892Z,1.77
2022-10-03T15:06:11.345Z,2.20
2022-10-03T15:08:47.844Z,2.17
2022-10-03T15:11:16.555Z,2.20
2022-10-03T15:13:47.658Z,1.88
2022-10-03T15:16:16.744Z,1.42
2022-10-03T15:18:50.222Z,1.38
2022-10-03T15:21:17.883Z,1.67
2022-10-03T15:23:45.971Z,1.42
2022-10-03T15:26:21.385Z,1.60
2022-10-03T15:28:50.755Z,1.40
2022-10-03T15:31:30.404Z,1.70
2022-10-03T15:33:58.056Z,2.10
2022-10-03T15:36:27.164Z,2.47
2022-10-03T15:38:57.865Z,2.55
2022-10-03T15:41:54.941Z,2.40
2022-10-03T15:44:41.768Z,2.33
2022-10-03T15:47:11.512Z,1.83
2022-10-03T15:49:40.743Z,1.75
2022-10-03T15:52:20.231Z,1.38
2022-10-03T15:54:54.722Z,1.10
2022-10-03T15:57:32.913Z,1.50
2022-10-03T16:00:03.610Z,1.00
2022-10-03T16:02:43.375Z,1.35
2022-10-03T16:05:19.707Z,1.20
2022-10-03T16:07:56.844Z,1.77
2022-10-03T16:10:32.730Z,1.20
2022-10-03T16:13:06.501Z,1.08
2022-10-03T16:15:52.770Z,1.60
2022-10-03T16:18:42.031Z,1.50
2022-10-03T16:21:12.974Z,1.27
2022-10-03T16:23:42.436Z,1.33
2022-10-03T16:26:30.865Z,1.35
2022-10-03T16:29:13.052Z,1.65
2022-10-03T16:31:45.363Z,1.20
2022-10-03T16:34:15.744Z,1.48
2022-10-03T16:36:50.445Z,1.30
2022-10-03T16:39:21.494Z,1.45
2022-10-03T16:41:50.530Z,1.40
2022-10-03T16:44:26.699Z,1.40
2022-10-03T16:46:55.676Z,1.50
2022-10-03T16:49:45.454Z,1.52
2022-10-03T16:52:15.807Z,1.52
2022-10-03T16:54:45.750Z,2.08
2022-10-03T16:57:32.869Z,1.60
2022-10-03T17:00:08.309Z,1.92
2022-10-03T17:02:36.565Z,1.92
2022-10-03T17:05:12.434Z,1.63
2022-10-03T17:07:42.844Z,1.65
2022-10-03T17:10:35.460Z,1.33
2022-10-03T17:13:38.027Z,1.58
2022-10-03T17:16:13.445Z,1.30
2022-10-03T17:18:44.692Z,1.40
2022-10-03T17:21:19.318Z,1.20
2022-10-03T17:23:53.514Z,1.40
2022-10-03T17:26:29.587Z,1.02
2022-10-03T17:29:29.649Z,1.30
2022-10-03T17:32:01.218Z,1.40
2022-10-03T17:34:39.998Z,1.50
2022-10-03T17:37:39.977Z,1.38
2022-10-03T17:40:23.575Z,2.53
2022-10-03T17:43:01.359Z,1.80
2022-10-03T17:45:33.701Z,1.35
2022-10-03T17:48:21.950Z,1.50
2022-10-03T17:51:09.443Z,1.20
2022-10-03T17:53:37.827Z,1.13
2022-10-03T17:56:15.548Z,1.08
2022-10-03T17:58:50.171Z,1.40
2022-10-03T18:01:39.587Z,1.35
2022-10-03T18:04:16.621Z,1.20
2022-10-03T18:07:02.925Z,1.45
2022-10-03T18:09:33.255Z,1.30
2022-10-03T18:12:17.092Z,1.60
2022-10-03T18:15:14.766Z,1.15
2022-10-03T18:17:54.697Z,1.50
2022-10-03T18:20:48.917Z,1.63
2022-10-03T18:23:49.997Z,1.60
2022-10-03T18:26:21.111Z,1.38
2022-10-03T18:29:07.470Z,1.38
2022-10-03T18:31:36.310Z,1.30
2022-10-03T18:34:14.144Z,1.10
2022-10-03T18:36:47.730Z,1.30
2022-10-03T18:39:25.500Z,1.33
2022-10-03T18:41:55.643Z,1.30
2022-10-03T18:44:23.837Z,1.50
2022-10-03T18:46:56.726Z,1.58
2022-10-03T18:49:33.953Z,1.60
2022-10-03T18:52:50.280Z,1.73
2022-10-03T18:55:51.251Z,1.27
2022-10-03T18:58:26.003Z,1.40
2022-10-03T19:03:36.696Z,1.40
2022-10-03T19:06:20.794Z,1.50
2022-10-03T19:08:59.998Z,1.98
2022-10-03T19:11:34.984Z,2.17
2022-10-03T19:14:33.295Z,1.45
2022-10-03T19:17:56.512Z,1.50
2022-10-03T19:20:28.623Z,1.60
2022-10-03T19:22:59.208Z,1.30
2022-10-03T19:25:27.333Z,1.90
2022-10-03T19:28:00.816Z,1.40
2022-10-03T19:30:29.529Z,1.60
